Latest Weather Observations for Camden

IDN60901

Issued at 9:31 am EST Sunday 24 June 2018 (issued every 10 minutes, with the page automatically refreshed every 10 minutes)

About weather observations | Map of Sydney area stations | Latest observations for Sydney area | Other Formats
Station Details ID: 068192 Name: CAMDEN AIRPORT AWS Lat: -34.04 Lon: 150.69 Height: 73.9 m
Data from the previous 72 hours. | See also: Recent months at Camden
Date/Time
EST
Temp
°C
App
Temp
°C
Dew
Point
°C
Rel
Hum
%
Delta-T
°C
Wind Press
QNH
hPa
Press
MSL
hPa
Rain since
9am
mm
Dir  Spd
km/h
Gust
km/h
Spd
kts
Gust
kts
24/09:30am 8.6 7.4 4.4 75 1.8 CALM 0 0 0 0 1027.8 1027.9 0.0
24/09:00am 7.3 6.1 4.4 82 1.3 CALM 0 0 0 0 1027.9 1028.0 0.0
24/08:30am 4.5 3.1 3.5 93 0.4 CALM 0 0 0 0 1027.9 1028.0 0.0
24/08:00am 1.4 -0.4 1.1 98 0.1 CALM 0 0 0 0 1027.6 1027.7 0.0
24/07:41am 0.9 -1.0 0.8 99 0.0 CALM 0 0 0 0 1027.5 1027.6 0.0
24/07:30am 0.8 -1.1 0.7 99 0.0 CALM 0 0 0 0 1027.5 1027.6 0.0
24/07:19am 0.1 -1.9 -0.2 98 0.1 CALM 0 0 0 0 1027.3 1027.4 0.0
24/07:00am -0.2 -2.3 -0.8 96 0.2 CALM 0 0 0 0 1027.0 1027.1 0.0
24/06:30am 0.0 -2.1 -0.6 96 0.2 CALM 0 0 0 0 1026.7 1026.8 0.0
24/06:00am 0.5 -1.5 0.1 97 0.1 CALM 0 0 0 0 1026.2 1026.3 0.0
24/05:30am 0.3 -1.7 -0.4 95 0.2 CALM 0 0 0 0 1026.0 1026.1 0.0
24/05:00am 0.8 -1.2 0.2 96 0.2 CALM 0 0 0 0 1025.6 1025.7 0.0
24/04:30am 0.7 -1.3 -0.2 94 0.3 CALM 0 0 0 0 1025.4 1025.5 0.0
24/04:00am 1.0 -1.0 0.1 94 0.3 CALM 0 0 0 0 1025.3 1025.4 0.0
24/03:30am 0.9 -1.1 -0.4 91 0.5 CALM 0 0 0 0 1025.5 1025.6 0.0
24/03:00am 2.4 0.5 0.8 89 0.6 CALM 0 0 0 0 1025.5 1025.6 0.0
24/02:30am 1.5 -0.6 -0.6 86 0.8 CALM 0 0 0 0 1025.6 1025.7 0.0
24/02:00am 2.6 0.5 -0.5 80 1.1 CALM 0 0 0 0 1025.6 1025.7 0.0
24/01:30am 3.3 0.2 0.4 81 1.1 SSW 6 9 3 5 1025.7 1025.8 0.0
24/01:00am 3.4 0.3 -0.1 78 1.3 S 6 9 3 5 1025.7 1025.8 0.0
24/12:30am 3.1 0.7 0.0 80 1.2 SE 2 9 1 5 1025.8 1025.9 0.0
24/12:00am 4.2 0.8 1.7 84 1.0 SSE 9 13 5 7 1025.8 1025.9 0.0
 
Date/Time
EST
Temp
°C
App
Temp
°C
Dew
Point
°C
Rel
Hum
%
Delta-T
°C
Wind Press
QNH
hPa
Press
MSL
hPa
Rain since
9am
mm
Dir  Spd
km/h
Gust
km/h
Spd
kts
Gust
kts
23/11:30pm 3.2 -0.1 0.4 82 1.1 SSE 7 9 4 5 1025.8 1025.9 0.0
23/11:00pm 4.7 1.8 1.4 79 1.3 SE 6 9 3 5 1025.9 1026.0 0.0
23/10:30pm 3.8 2.0 1.0 82 1.1 CALM 0 0 0 0 1025.9 1026.0 0.0
23/10:00pm 6.6 2.8 1.9 72 1.9 SSE 11 13 6 7 1025.6 1025.7 0.0
23/09:30pm 6.1 2.8 2.2 76 1.6 SSE 9 11 5 6 1025.6 1025.7 0.0
23/09:00pm 7.4 5.9 2.9 73 1.9 CALM 0 0 0 0 1025.4 1025.5 0.0
23/08:30pm 5.5 3.6 0.5 70 1.9 CALM 0 0 0 0 1025.4 1025.5 0.0
23/08:00pm 8.3 6.3 2.1 65 2.6 SE 2 7 1 4 1025.1 1025.2 0.0
23/07:30pm 8.7 7.0 1.6 61 2.9 CALM 0 0 0 0 1024.8 1024.9 0.0
23/07:00pm 11.0 7.4 0.4 48 4.3 S 9 13 5 7 1024.4 1024.5 0.0
23/06:30pm 12.8 10.3 -0.8 39 5.5 E 2 11 1 6 1024.1 1024.2 0.0
23/06:00pm 12.7 10.2 -0.9 39 5.5 WSW 2 9 1 5 1023.7 1023.8 0.0
23/05:30pm 13.1 8.9 -0.9 38 5.7 WSW 11 15 6 8 1023.2 1023.3 0.0
23/05:00pm 16.0 12.0 -2.0 29 7.3 SW 9 11 5 6 1022.9 1023.0 0.0
23/04:30pm 17.9 13.2 -1.9 26 8.3 WSW 13 17 7 9 1022.7 1022.8 0.0
23/04:00pm 19.0 13.8 -2.6 23 9.0 WSW 15 22 8 12 1022.4 1022.5 0.0
23/03:30pm 19.6 14.8 -2.7 22 9.3 WSW 13 15 7 8 1022.2 1022.3 0.0
23/03:00pm 19.6 13.7 -2.1 23 9.1 WSW 19 24 10 13 1022.1 1022.2 0.0
23/02:30pm 19.6 15.3 -1.5 24 9.0 SW 11 15 6 8 1022.1 1022.2 0.0
23/02:00pm 19.5 16.0 -1.6 24 9.0 WSW 7 17 4 9 1022.3 1022.4 0.0
23/01:30pm 18.8 14.8 -2.2 24 8.8 WSW 9 19 5 10 1022.5 1022.6 0.0
23/01:00pm 19.1 15.6 -2.5 23 9.0 WSW 6 11 3 6 1022.8 1022.9 0.0
23/12:30pm 17.8 16.0 1.3 33 7.4 CALM 0 6 0 3 1023.4 1023.5 0.0
23/12:00pm 15.6 14.0 2.7 42 5.8 CALM 0 6 0 3 1024.0 1024.1 0.0
23/11:30am 13.6 11.6 4.5 54 4.2 SE 4 9 2 5 1024.4 1024.5 0.0
23/11:00am 12.3 10.3 4.5 59 3.5 SSW 4 7 2 4 1024.8 1024.9 0.0
23/10:30am 10.4 9.2 4.5 67 2.7 CALM 0 0 0 0 1025.1 1025.2 0.0
23/10:00am 9.0 7.8 4.4 73 2.0 CALM 0 0 0 0 1025.3 1025.4 0.0
23/09:30am 6.8 5.5 4.3 84 1.1 CALM 0 0 0 0 1025.6 1025.7 0.0
23/09:00am 5.0 3.8 4.6 97 0.2 CALM 0 0 0 0 1025.6 1025.7 0.0
23/08:30am 3.8 2.4 3.7 99 0.0 CALM 0 0 0 0 1025.5 1025.6 0.0
23/08:00am 1.6 -1.3 1.5 99 0.0 S 6 7 3 4 1025.4 1025.5 0.0
23/07:30am 0.5 -1.4 0.4 99 0.0 CALM 0 0 0 0 1025.2 1025.3 0.0
23/07:19am 0.2 -1.8 0.1 99 0.0 CALM 0 0 0 0 1025.0 1025.1 0.0
23/07:05am 0.2 -1.8 0.1 99 0.0 CALM 0 0 0 0 1024.9 1025.0 0.0
23/07:00am 0.1 -1.9 0.0 99 0.0 CALM 0 0 0 0 1025.0 1025.1 0.0
23/06:30am 1.2 -0.6 1.1 99 0.0 CALM 0 0 0 0 1024.7 1024.8 0.0
23/06:25am 1.4 -0.4 1.3 99 0.0 CALM 0 0 0 0 1024.7 1024.8 0.0
23/06:22am 1.5 -0.3 1.4 99 0.0 CALM 0 0 0 0 1024.7 1024.8 0.0
23/06:21am 1.6 -0.2 1.5 99 0.0 CALM 0 0 0 0 1024.7 1024.8 0.0
23/06:04am 1.4 -0.4 1.3 99 0.0 CALM 0 0 0 0 1024.6 1024.7 0.0
23/06:00am 0.9 -1.0 0.8 99 0.0 CALM 0 0 0 0 1024.6 1024.7 0.0
23/05:30am 1.3 -0.5 1.2 99 0.0 CALM 0 0 0 0 1024.6 1024.7 0.0
23/05:00am 0.9 -1.0 0.8 99 0.0 CALM 0 0 0 0 1024.4 1024.5 0.0
23/04:54am 1.0 -0.8 0.9 99 0.0 CALM 0 0 0 0 1024.4 1024.5 0.0
23/04:30am 1.5 -0.3 1.4 99 0.0 CALM 0 0 0 0 1024.4 1024.5 0.0
23/04:27am 1.2 -0.6 1.1 99 0.0 CALM 0 0 0 0 1024.3 1024.4 0.0
23/04:00am 1.7 -0.8 1.6 99 0.0 S 4 7 2 4 1024.4 1024.5 0.0
23/03:54am 1.8 -1.1 1.7 99 0.0 S 6 7 3 4 1024.5 1024.6 0.0
23/03:30am 1.3 -0.5 1.2 99 0.0 CALM 0 0 0 0 1024.7 1024.8 0.0
23/03:10am 2.0 0.3 1.9 99 0.0 CALM 0 4 0 2 1024.7 1024.8 0.0
23/03:00am 2.2 -0.2 2.1 99 0.0 SE 4 9 2 5 1024.8 1024.9 0.0
23/02:55am 2.5 -0.2 2.4 99 0.0 SSE 6 9 3 5 1024.8 1024.9 0.0
23/02:30am 2.3 0.3 2.2 99 0.0 S 2 7 1 4 1025.1 1025.2 0.0
23/02:00am 2.8 1.2 2.7 99 0.0 CALM 0 0 0 0 1025.3 1025.4 0.0
23/01:30am 3.3 1.8 3.2 99 0.0 CALM 0 0 0 0 1025.2 1025.3 0.0
23/01:00am 3.3 1.8 3.2 99 0.0 CALM 0 0 0 0 1025.5 1025.6 0.0
23/12:41am 3.9 2.5 3.8 99 0.0 CALM 0 0 0 0 1025.7 1025.8 0.0
23/12:30am 3.5 2.0 3.1 97 0.2 CALM 0 0 0 0 1025.7 1025.8 0.0
23/12:04am 4.2 2.9 4.1 99 0.0 CALM 0 0 0 0 1025.9 1026.0 0.0
23/12:00am 4.5 3.3 4.4 99 0.0 CALM 0 0 0 0 1025.9 1026.0 0.0
 
Date/Time
EST
Temp
°C
App
Temp
°C
Dew
Point
°C
Rel
Hum
%
Delta-T
°C
Wind Press
QNH
hPa
Press
MSL
hPa
Rain since
9am
mm
Dir  Spd
km/h
Gust
km/h
Spd
kts
Gust
kts
22/11:30pm 4.8 3.6 4.7 99 0.0 CALM 0 0 0 0 1026.1 1026.2 0.0
22/11:00pm 4.8 3.6 4.4 97 0.2 CALM 0 0 0 0 1026.2 1026.3 0.0
22/10:54pm 5.0 3.8 4.7 98 0.1 CALM 0 0 0 0 1026.2 1026.3 0.0
22/10:38pm 4.9 3.6 4.3 96 0.3 CALM 0 0 0 0 1026.4 1026.5 0.0
22/10:30pm 5.0 3.8 4.4 96 0.3 CALM 0 0 0 0 1026.3 1026.4 0.0
22/10:19pm 5.5 4.4 5.2 98 0.1 CALM 0 0 0 0 1026.3 1026.4 0.0
22/10:00pm 5.6 4.5 5.0 96 0.3 CALM 0 0 0 0 1026.2 1026.3 0.0
22/09:30pm 6.7 5.9 6.3 97 0.2 CALM 0 0 0 0 1026.1 1026.2 0.0
22/09:00pm 6.5 5.5 5.6 94 0.4 CALM 0 0 0 0 1026.3 1026.4 0.0
22/08:30pm 7.0 6.0 5.8 92 0.5 CALM 0 0 0 0 1026.3 1026.4 0.0
22/08:00pm 7.9 7.2 7.0 94 0.4 CALM 0 0 0 0 1026.3 1026.4 0.0
22/07:30pm 8.7 7.8 6.2 84 1.2 CALM 0 0 0 0 1026.1 1026.2 0.0
22/07:00pm 9.1 8.5 7.2 88 0.9 CALM 0 0 0 0 1026.1 1026.2 0.0
22/06:30pm 9.8 9.0 6.5 80 1.5 CALM 0 0 0 0 1025.8 1025.9 0.0
22/06:00pm 11.4 10.7 6.9 74 2.1 CALM 0 0 0 0 1025.6 1025.7 0.0
22/05:30pm 12.6 11.9 6.9 68 2.7 CALM 0 0 0 0 1025.5 1025.6 0.0
22/05:00pm 14.5 13.7 6.3 58 3.9 CALM 0 6 0 3 1025.4 1025.5 0.0
22/04:30pm 16.2 13.8 6.9 54 4.6 N 9 13 5 7 1025.3 1025.4 0.0
22/04:00pm 17.2 14.5 7.3 52 4.9 N 11 13 6 7 1025.3 1025.4 0.0
22/03:30pm 17.7 15.3 6.9 49 5.4 N 9 13 5 7 1025.2 1025.3 0.0
22/03:00pm 17.7 15.3 6.9 49 5.4 NNE 9 13 5 7 1025.2 1025.3 0.0
22/02:30pm 17.6 14.7 6.5 48 5.5 NNE 11 15 6 8 1025.3 1025.4 0.0
22/02:00pm 17.6 15.2 7.1 50 5.2 N 9 15 5 8 1025.5 1025.6 0.0
22/01:30pm 17.4 15.1 7.5 52 5.0 NNE 9 15 5 8 1025.8 1025.9 0.0
22/01:00pm 17.1 14.8 7.5 53 4.8 NNE 9 15 5 8 1026.1 1026.2 0.0
22/12:30pm 16.6 14.7 6.7 52 4.9 ENE 6 11 3 6 1026.6 1026.7 0.0
22/12:00pm 16.3 14.8 6.7 53 4.7 NW 4 9 2 5 1027.3 1027.4 0.0
22/11:30am 15.7 13.9 7.0 56 4.3 N 6 9 3 5 1027.9 1028.0 0.0
22/11:00am 14.7 13.8 7.7 63 3.5 NE 2 7 1 4 1028.4 1028.5 0.0
22/10:30am 12.2 11.2 7.3 72 2.4 WSW 2 7 1 4 1028.9 1029.0 0.0
22/10:00am 10.3 9.6 6.8 79 1.6 CALM 0 0 0 0 1028.9 1029.0 0.0
22/09:30am 8.5 7.8 6.8 89 0.8 CALM 0 0 0 0 1028.9 1029.0 0.0
22/09:00am 7.0 6.3 6.9 99 0.0 CALM 0 0 0 0 1028.8 1028.9 0.2
22/08:30am 5.4 4.3 5.3 99 0.0 CALM 0 0 0 0 1028.7 1028.8 0.2
22/08:00am 3.5 2.1 3.4 99 0.0 CALM 0 0 0 0 1028.6 1028.7 0.2
22/07:47am 2.7 0.8 2.6 99 0.0 SSE 2 6 1 3 1028.5 1028.6 0.2
22/07:30am 2.2 -0.2 2.1 99 0.0 S 4 7 2 4 1028.3 1028.4 0.2
22/07:00am 1.9 0.2 1.8 99 0.0 CALM 0 0 0 0 1028.3 1028.4 0.2
22/06:30am 1.9 0.2 1.8 99 0.0 CALM 0 0 0 0 1028.0 1028.1 0.2
22/06:00am 2.2 0.5 2.1 99 0.0 CALM 0 0 0 0 1027.9 1028.0 0.0
22/05:30am 2.4 0.8 2.3 99 0.0 CALM 0 0 0 0 1027.7 1027.8 0.0
22/05:00am 2.4 0.8 2.3 99 0.0 CALM 0 0 0 0 1027.6 1027.7 0.0
22/04:30am 2.6 1.0 2.5 99 0.0 CALM 0 0 0 0 1027.5 1027.6 0.0
22/04:00am 2.9 1.4 2.8 99 0.0 CALM 0 0 0 0 1027.5 1027.6 0.0
22/03:30am 3.1 1.2 3.0 99 0.0 S 2 6 1 3 1027.6 1027.7 0.0
22/03:00am 3.4 2.0 3.3 99 0.0 CALM 0 0 0 0 1027.7 1027.8 0.0
22/02:30am 3.7 2.3 3.6 99 0.0 CALM 0 0 0 0 1028.0 1028.1 0.0
22/02:00am 3.9 2.5 3.8 99 0.0 CALM 0 0 0 0 1028.0 1028.1 0.0
22/01:30am 4.2 2.9 4.1 99 0.0 CALM 0 0 0 0 1027.9 1028.0 0.0
22/01:18am 4.7 3.5 4.6 99 0.0 CALM 0 0 0 0 1027.9 1028.0 0.0
22/01:00am 4.9 3.7 4.8 99 0.0 CALM 0 0 0 0 1028.0 1028.1 0.0
22/12:30am 5.0 3.9 4.9 99 0.0 CALM 0 0 0 0 1028.1 1028.2 0.0
22/12:23am 5.2 4.1 5.1 99 0.0 CALM 0 0 0 0 1028.1 1028.2 0.0
22/12:00am 6.1 5.2 6.0 99 0.0 CALM 0 0 0 0 1028.2 1028.3 0.0
 
Date/Time
EST
Temp
°C
App
Temp
°C
Dew
Point
°C
Rel
Hum
%
Delta-T
°C
Wind Press
QNH
hPa
Press
MSL
hPa
Rain since
9am
mm
Dir  Spd
km/h
Gust
km/h
Spd
kts
Gust
kts
21/11:30pm 5.9 4.9 5.8 99 0.0 CALM 0 0 0 0 1028.3 1028.4 0.0
21/11:00pm 6.2 5.3 5.9 98 0.1 CALM 0 0 0 0 1028.3 1028.4 0.0
21/10:30pm 6.7 5.9 6.6 99 0.0 CALM 0 0 0 0 1028.3 1028.4 0.0
21/10:20pm 6.9 5.0 6.6 98 0.1 S 6 9 3 5 1028.3 1028.4 0.0
21/10:00pm 7.0 6.2 6.4 96 0.3 CALM 0 6 0 3 1028.2 1028.3 0.0
21/09:30pm 8.2 7.8 8.1 99 0.0 CALM 0 0 0 0 1028.2 1028.3 0.0
21/09:00pm 8.0 7.4 7.6 97 0.2 CALM 0 4 0 2 1028.1 1028.2 0.0
21/08:30pm 8.2 5.9 7.4 95 0.4 S 9 9 5 5 1028.1 1028.2 0.0
21/08:00pm 8.6 8.0 7.4 92 0.6 CALM 0 0 0 0 1028.0 1028.1 0.0
21/07:30pm 9.5 8.9 7.6 88 0.9 CALM 0 0 0 0 1027.8 1027.9 0.0
21/07:00pm 10.8 10.5 8.7 87 1.0 CALM 0 0 0 0 1027.7 1027.8 0.0
21/06:30pm 10.9 10.4 7.8 81 1.5 CALM 0 0 0 0 1027.5 1027.6 0.0
21/06:00pm 11.3 10.8 7.8 79 1.7 CALM 0 6 0 3 1027.2 1027.3 0.0
21/05:30pm 13.7 12.3 8.7 72 2.5 E 6 7 3 4 1026.7 1026.8 0.0
21/05:00pm 14.2 12.1 8.4 68 2.9 ENE 9 13 5 7 1026.4 1026.5 0.0
21/04:30pm 15.5 13.5 8.5 63 3.6 ENE 9 13 5 7 1026.3 1026.4 0.0
21/04:00pm 16.9 14.2 7.5 54 4.7 ENE 11 13 6 7 1026.1 1026.2 0.0
21/03:30pm 17.3 14.6 7.4 52 5.0 NNE 11 13 6 7 1026.1 1026.2 0.0
21/03:00pm 17.5 15.0 6.7 49 5.3 NE 9 11 5 6 1026.0 1026.1 0.0
21/02:30pm 17.4 15.0 5.4 45 5.8 NNE 7 9 4 5 1026.1 1026.2 0.0
21/02:00pm 17.9 15.7 5.5 44 6.0 NNW 6 11 3 6 1026.3 1026.4 0.0
21/01:30pm 17.7 15.9 5.6 45 5.9 N 4 9 2 5 1026.5 1026.6 0.0
21/01:00pm 17.0 14.7 5.9 48 5.4 ENE 7 15 4 8 1026.8 1026.9 0.0
21/12:30pm 16.6 15.4 6.4 51 5.0 SSE 2 9 1 5 1027.2 1027.3 0.0
21/12:00pm 16.0 14.3 5.9 51 4.9 ENE 4 9 2 5 1027.7 1027.8 0.0
21/11:30am 15.7 14.4 6.2 53 4.6 SW 2 7 1 4 1028.2 1028.3 0.0
21/11:00am 15.4 13.2 6.4 55 4.4 WSW 7 11 4 6 1028.5 1028.6 0.0
21/10:30am 14.0 12.8 6.6 61 3.6 W 2 7 1 4 1028.8 1028.9 0.0
21/10:00am 13.0 11.0 6.4 64 3.1 WSW 6 7 3 4 1028.9 1029.0 0.0

Latest Capital City Observations: Canberra | Sydney | Melbourne | Brisbane | Adelaide | Perth | Hobart | Darwin

Other Formats:

Comma delimited format used in spreadsheet applications
http://www.bom.gov.au/fwo/IDN60901/IDN60901.94755.axf

JavaScript Object Notation format (JSON) in row-major order
http://www.bom.gov.au/fwo/IDN60901/IDN60901.94755.json